createdAt,value
2023-08-11T00:00:44.910Z,97079.50
2023-08-11T00:01:46.489Z,97079.50
2023-08-11T00:02:51.592Z,97077.19
2023-08-11T00:03:53.251Z,97083.44
2023-08-11T00:04:54.870Z,97084.25
2023-08-11T00:05:56.547Z,97081.53
2023-08-11T00:06:58.440Z,97078.81
2023-08-11T00:08:00.054Z,97092.00
2023-08-11T00:09:01.909Z,97083.84
2023-08-11T00:10:04.382Z,97080.69
2023-08-11T00:11:07.595Z,97086.31
2023-08-11T00:12:09.333Z,97080.06
2023-08-11T00:13:14.144Z,97088.59
2023-08-11T00:14:15.696Z,97087.81
2023-08-11T00:15:17.939Z,97085.53
2023-08-11T00:16:19.731Z,97084.00
2023-08-11T00:17:22.264Z,97083.25
2023-08-11T00:18:23.871Z,97079.03
2023-08-11T00:19:26.656Z,97071.56
2023-08-11T00:20:29.495Z,97077.69
2023-08-11T00:21:31.301Z,97083.16
2023-08-11T00:22:33.729Z,97078.44
2023-08-11T00:23:37.167Z,97079.13
2023-08-11T00:24:38.782Z,97079.88
2023-08-11T00:25:40.417Z,97074.38
2023-08-11T00:26:42.045Z,97075.94
2023-08-11T00:27:43.708Z,97073.59
2023-08-11T00:28:46.214Z,97075.53
2023-08-11T00:29:47.771Z,97075.97
2023-08-11T00:30:50.215Z,97075.97
2023-08-11T00:31:51.823Z,97075.53
2023-08-11T00:32:53.752Z,97077.03
2023-08-11T00:33:55.435Z,97076.69
2023-08-11T00:34:57.437Z,97073.63
2023-08-11T00:35:59.024Z,97077.53
2023-08-11T00:37:00.955Z,97080.97
2023-08-11T00:38:02.543Z,97083.31
2023-08-11T00:39:04.307Z,97083.66
2023-08-11T00:40:07.681Z,97086.56
2023-08-11T00:41:09.411Z,97083.03
2023-08-11T00:42:11.148Z,97076.88
2023-08-11T00:43:12.840Z,97083.94
2023-08-11T00:44:14.471Z,97078.16
2023-08-11T00:45:16.435Z,97077.72
2023-08-11T00:46:19.642Z,97080.00
2023-08-11T00:47:21.595Z,97084.03
2023-08-11T00:48:23.191Z,97085.41
2023-08-11T00:49:25.361Z,97085.34
2023-08-11T00:50:27.529Z,97085.34
2023-08-11T00:51:29.968Z,97086.47
2023-08-11T00:52:31.687Z,97093.06
2023-08-11T00:53:34.596Z,97091.41
2023-08-11T00:54:37.876Z,97085.09
2023-08-11T00:55:39.691Z,97090.31
2023-08-11T00:56:45.406Z,97088.59
2023-08-11T00:57:47.917Z,97096.31
2023-08-11T00:58:52.518Z,97091.72
2023-08-11T00:59:54.150Z,97097.16
2023-08-11T01:00:56.826Z,97084.66
2023-08-11T01:01:58.496Z,97096.88
2023-08-11T01:03:00.249Z,97095.88
2023-08-11T01:04:02.100Z,97101.94
2023-08-11T01:05:05.353Z,97101.25
2023-08-11T01:06:32.502Z,97104.22
2023-08-11T01:07:43.061Z,97105.91
2023-08-11T01:08:52.104Z,97107.56
2023-08-11T01:10:05.010Z,97104.28
2023-08-11T01:11:34.704Z,97102.88
2023-08-11T01:12:47.242Z,97104.56
2023-08-11T01:13:54.610Z,97105.47
2023-08-11T01:15:30.892Z,97101.34
2023-08-11T01:16:33.993Z,97094.78
2023-08-11T01:17:37.661Z,97099.50
2023-08-11T01:18:40.165Z,97104.88
2023-08-11T01:19:42.063Z,97097.03
2023-08-11T01:20:44.648Z,97103.97
2023-08-11T01:21:47.964Z,97100.72
2023-08-11T01:22:55.016Z,97105.38
2023-08-11T01:23:57.371Z,97103.19
2023-08-11T01:24:59.088Z,97107.22
2023-08-11T01:26:02.311Z,97101.09
2023-08-11T01:27:04.476Z,97114.16
2023-08-11T01:28:06.236Z,97119.50
2023-08-11T01:29:07.913Z,97111.94
2023-08-11T01:30:10.017Z,97107.81
2023-08-11T01:31:12.149Z,97110.34
2023-08-11T01:32:13.996Z,97118.47
2023-08-11T01:33:16.178Z,97122.13
2023-08-11T01:34:17.904Z,97121.47
2023-08-11T01:35:29.776Z,97111.34
2023-08-11T01:36:42.288Z,97117.50
2023-08-11T01:37:44.529Z,97117.84
2023-08-11T01:38:46.088Z,97109.72
2023-08-11T01:39:47.684Z,97104.31
2023-08-11T01:40:49.856Z,97109.31
2023-08-11T01:41:51.601Z,97116.63
2023-08-11T01:42:56.000Z,97111.94
2023-08-11T01:43:58.251Z,97106.56
2023-08-11T01:44:59.852Z,97106.06
2023-08-11T01:46:02.344Z,97114.97
2023-08-11T01:47:06.799Z,97113.09
2023-08-11T01:48:09.538Z,97115.78
2023-08-11T01:49:13.572Z,97113.53
2023-08-11T01:50:17.523Z,97111.56
2023-08-11T01:51:19.492Z,97121.03
2023-08-11T01:52:23.074Z,97110.84
2023-08-11T01:53:25.112Z,97113.44
2023-08-11T01:54:27.112Z,97115.31
2023-08-11T01:55:30.232Z,97116.09
2023-08-11T01:56:32.850Z,97114.22
2023-08-11T01:57:39.273Z,97112.38
2023-08-11T01:58:46.487Z,97106.13
2023-08-11T01:59:48.616Z,97109.25
2023-08-11T02:00:50.230Z,97109.66
2023-08-11T02:01:51.970Z,97111.63
2023-08-11T02:02:53.845Z,97108.94
2023-08-11T02:03:55.588Z,97117.13
2023-08-11T02:04:57.297Z,97109.31
2023-08-11T02:06:00.143Z,97100.06
2023-08-11T02:07:01.806Z,97102.16
2023-08-11T02:08:03.979Z,97100.28
2023-08-11T02:09:13.595Z,97103.47
2023-08-11T02:10:15.225Z,97102.72
2023-08-11T02:11:16.820Z,97109.41
2023-08-11T02:12:18.656Z,97109.06
2023-08-11T02:13:20.854Z,97107.94
2023-08-11T02:14:22.712Z,97106.59
2023-08-11T02:15:24.408Z,97117.06
2023-08-11T02:16:26.365Z,97119.94
2023-08-11T02:17:28.036Z,97114.38
2023-08-11T02:18:29.874Z,97116.00
2023-08-11T02:19:31.459Z,97113.75
2023-08-11T02:20:34.185Z,97114.25
2023-08-11T02:21:38.601Z,97113.63
2023-08-11T02:22:40.278Z,97111.84
2023-08-11T02:23:41.880Z,97111.22
2023-08-11T02:24:43.603Z,97110.19
2023-08-11T02:25:45.213Z,97115.56
2023-08-11T02:26:46.747Z,97114.38
2023-08-11T02:27:48.658Z,97106.66
2023-08-11T02:28:50.514Z,97112.94
2023-08-11T02:29:52.611Z,97109.88
2023-08-11T02:30:54.271Z,97111.88
2023-08-11T02:31:55.951Z,97111.53
2023-08-11T02:32:57.725Z,97113.53
2023-08-11T02:33:59.819Z,97109.38
2023-08-11T02:35:01.980Z,97114.03
2023-08-11T02:36:05.255Z,97110.59
2023-08-11T02:37:07.094Z,97108.69
2023-08-11T02:38:09.931Z,97106.38
2023-08-11T02:39:11.595Z,97108.69
2023-08-11T02:40:13.580Z,97107.88
2023-08-11T02:41:15.174Z,97112.88
2023-08-11T02:42:16.731Z,97112.88
2023-08-11T02:43:18.383Z,97109.84
2023-08-11T02:44:19.929Z,97112.63
2023-08-11T02:45:22.024Z,97107.22
2023-08-11T02:46:24.408Z,97112.66
2023-08-11T02:47:26.025Z,97112.69
2023-08-11T02:48:27.779Z,97106.53
2023-08-11T02:49:29.393Z,97108.09
2023-08-11T02:50:31.045Z,97108.09
2023-08-11T02:51:32.694Z,97105.00
2023-08-11T02:52:34.243Z,97098.44
2023-08-11T02:53:36.340Z,97103.16
2023-08-11T02:54:38.005Z,97105.50
2023-08-11T02:55:39.576Z,97099.31
2023-08-11T02:56:48.430Z,97099.75
2023-08-11T02:57:50.286Z,97100.13
2023-08-11T02:58:51.932Z,97107.13
2023-08-11T02:59:53.523Z,97102.13
2023-08-11T03:00:55.124Z,97105.22
2023-08-11T03:01:56.686Z,97099.78
2023-08-11T03:02:58.416Z,97108.78
2023-08-11T03:04:01.094Z,97103.78
2023-08-11T03:05:04.904Z,97109.91
2023-08-11T03:06:06.515Z,97108.34
2023-08-11T03:07:10.682Z,97104.44
2023-08-11T03:08:12.301Z,97107.84
2023-08-11T03:09:15.108Z,97110.81
2023-08-11T03:10:16.724Z,97106.53
2023-08-11T03:11:18.369Z,97111.56
2023-08-11T03:12:20.817Z,97111.19
2023-08-11T03:13:22.493Z,97113.44
2023-08-11T03:14:24.121Z,97114.13
2023-08-11T03:15:25.970Z,97108.00
2023-08-11T03:16:27.671Z,97110.25
2023-08-11T03:17:29.555Z,97110.31
2023-08-11T03:18:31.695Z,97108.41
2023-08-11T03:19:33.868Z,97108.66
2023-08-11T03:20:35.431Z,97109.59
2023-08-11T03:21:37.134Z,97105.06
2023-08-11T03:22:38.815Z,97112.09
2023-08-11T03:23:40.356Z,97112.22
2023-08-11T03:24:41.945Z,97111.41
2023-08-11T03:25:43.569Z,97113.38
2023-08-11T03:26:45.120Z,97113.03
2023-08-11T03:27:47.221Z,97116.06
2023-08-11T03:28:48.827Z,97116.88
2023-08-11T03:29:50.467Z,97106.78
2023-08-11T03:30:52.021Z,97102.19
2023-08-11T03:31:53.615Z,97106.84
2023-08-11T03:32:55.344Z,97108.59
2023-08-11T03:33:56.995Z,97109.63
2023-08-11T03:34:58.628Z,97116.63
2023-08-11T03:36:00.259Z,97115.13
2023-08-11T03:37:01.889Z,97113.09
2023-08-11T03:38:03.684Z,97112.25
2023-08-11T03:39:05.447Z,97115.19
2023-08-11T03:40:10.546Z,97111.75
2023-08-11T03:41:12.186Z,97115.63
2023-08-11T03:42:14.535Z,97111.00
2023-08-11T03:43:16.278Z,97111.00
2023-08-11T03:44:17.994Z,97108.78
2023-08-11T03:45:19.744Z,97115.47
2023-08-11T03:46:22.193Z,97115.50
2023-08-11T03:47:23.826Z,97110.34
2023-08-11T03:48:25.413Z,97111.97
2023-08-11T03:49:27.517Z,97116.47
2023-08-11T03:50:29.234Z,97123.00
2023-08-11T03:51:30.924Z,97124.28
2023-08-11T03:52:33.053Z,97121.66
2023-08-11T03:53:35.084Z,97129.31
2023-08-11T03:54:45.061Z,97123.00
2023-08-11T03:55:47.713Z,97120.63
2023-08-11T03:56:49.412Z,97123.25
2023-08-11T03:57:51.025Z,97123.28
2023-08-11T03:58:52.604Z,97118.97
2023-08-11T03:59:54.201Z,97122.81
2023-08-11T04:00:56.269Z,97118.97
2023-08-11T04:01:57.934Z,97122.16
2023-08-11T04:02:59.612Z,97117.88
2023-08-11T04:04:01.834Z,97118.97
2023-08-11T04:05:03.764Z,97119.97
2023-08-11T04:06:05.389Z,97121.13
2023-08-11T04:07:06.978Z,97116.94
2023-08-11T04:08:08.848Z,97121.47
2023-08-11T04:09:10.590Z,97116.97
2023-08-11T04:10:12.461Z,97119.38
2023-08-11T04:11:14.230Z,97122.84
2023-08-11T04:12:15.802Z,97125.22
2023-08-11T04:13:17.369Z,97121.19
2023-08-11T04:14:18.951Z,97124.84
2023-08-11T04:15:20.594Z,97118.47
2023-08-11T04:16:22.790Z,97120.84
2023-08-11T04:17:24.439Z,97122.44
2023-08-11T04:18:26.356Z,97129.00
2023-08-11T04:19:27.967Z,97131.19
2023-08-11T04:20:30.049Z,97135.34
2023-08-11T04:21:31.782Z,97131.44
2023-08-11T04:22:39.068Z,97132.94
2023-08-11T04:23:41.498Z,97133.28
2023-08-11T04:24:43.143Z,97135.81
2023-08-11T04:25:44.946Z,97134.66
2023-08-11T04:26:46.625Z,97139.00
2023-08-11T04:27:48.708Z,97136.41
2023-08-11T04:28:50.382Z,97134.72
2023-08-11T04:29:51.986Z,97130.34
2023-08-11T04:30:54.836Z,97137.72
2023-08-11T04:31:56.530Z,97142.19
2023-08-11T04:32:58.385Z,97139.06
2023-08-11T04:34:00.332Z,97145.13
2023-08-11T04:35:01.933Z,97144.94
2023-08-11T04:36:03.865Z,97143.56
2023-08-11T04:37:06.644Z,97150.09
2023-08-11T04:38:08.616Z,97142.94
2023-08-11T04:39:11.620Z,97149.00
2023-08-11T04:40:15.012Z,97148.53
2023-08-11T04:41:16.680Z,97147.81
2023-08-11T04:42:18.594Z,97156.13
2023-08-11T04:43:20.732Z,97147.19
2023-08-11T04:44:22.324Z,97146.63
2023-08-11T04:45:23.956Z,97140.88
2023-08-11T04:46:25.564Z,97154.94
2023-08-11T04:47:27.565Z,97153.69
2023-08-11T04:48:29.168Z,97144.38
2023-08-11T04:49:30.798Z,97148.59
2023-08-11T04:50:33.323Z,97142.94
2023-08-11T04:51:34.925Z,97139.97
2023-08-11T04:52:36.628Z,97143.94
2023-08-11T04:53:39.452Z,97141.00
2023-08-11T04:54:41.118Z,97147.94
2023-08-11T04:55:42.854Z,97155.13
2023-08-11T04:56:45.080Z,97151.50
2023-08-11T04:57:46.755Z,97154.84
2023-08-11T04:58:48.328Z,97151.03
2023-08-11T04:59:50.199Z,97147.50
2023-08-11T05:00:52.404Z,97152.25
2023-08-11T05:01:56.459Z,97155.88
2023-08-11T05:02:58.869Z,97155.59
2023-08-11T05:04:00.718Z,97153.84
2023-08-11T05:05:02.798Z,97155.53
2023-08-11T05:06:06.807Z,97154.44
2023-08-11T05:07:09.261Z,97158.41
2023-08-11T05:08:11.360Z,97153.84
2023-08-11T05:09:13.127Z,97158.63
2023-08-11T05:10:14.712Z,97162.97
2023-08-11T05:11:16.312Z,97159.44
2023-08-11T05:12:17.965Z,97162.50
2023-08-11T05:13:19.595Z,97162.47
2023-08-11T05:14:21.175Z,97164.63
2023-08-11T05:15:23.891Z,97165.81
2023-08-11T05:16:25.670Z,97165.16
2023-08-11T05:17:27.309Z,97151.97
2023-08-11T05:18:37.944Z,97155.84
2023-08-11T05:19:44.890Z,97158.88
2023-08-11T05:20:47.827Z,97153.88
2023-08-11T05:21:49.516Z,97162.06
2023-08-11T05:22:53.379Z,97171.75
2023-08-11T05:23:55.114Z,97168.66
2023-08-11T05:24:56.676Z,97162.09
2023-08-11T05:25:58.467Z,97169.03
2023-08-11T05:27:00.040Z,97175.25
2023-08-11T05:28:01.629Z,97171.69
2023-08-11T05:29:03.256Z,97167.47
2023-08-11T05:30:05.198Z,97167.34
2023-08-11T05:31:07.185Z,97169.53
2023-08-11T05:32:08.853Z,97167.19
2023-08-11T05:33:10.573Z,97168.84
2023-08-11T05:34:12.212Z,97163.38
2023-08-11T05:35:13.812Z,97167.28
2023-08-11T05:36:15.543Z,97175.91
2023-08-11T05:37:18.200Z,97165.44
2023-08-11T05:38:23.886Z,97172.09
2023-08-11T05:39:25.592Z,97163.25
2023-08-11T05:40:27.270Z,97173.06
2023-08-11T05:41:28.864Z,97167.25
2023-08-11T05:42:30.493Z,97173.13
2023-08-11T05:43:32.064Z,97173.16
2023-08-11T05:44:33.949Z,97165.28
2023-08-11T05:45:35.526Z,97175.38
2023-08-11T05:46:37.537Z,97176.59
2023-08-11T05:47:39.485Z,97174.31
2023-08-11T05:48:41.411Z,97177.47
2023-08-11T05:49:43.101Z,97179.88
2023-08-11T05:50:46.261Z,97183.78
2023-08-11T05:51:47.954Z,97190.00
2023-08-11T05:52:49.536Z,97182.97
2023-08-11T05:53:53.941Z,97182.59
2023-08-11T05:54:56.074Z,97182.50
2023-08-11T05:55:58.253Z,97185.19
2023-08-11T05:56:59.896Z,97181.59
2023-08-11T05:58:01.566Z,97178.03
2023-08-11T05:59:03.250Z,97179.94
2023-08-11T06:00:06.045Z,97175.19
2023-08-11T06:01:07.841Z,97176.78
2023-08-11T06:02:09.454Z,97172.81
2023-08-11T06:03:13.924Z,97184.97
2023-08-11T06:04:15.593Z,97174.41
2023-08-11T06:05:18.528Z,97177.44
2023-08-11T06:06:20.099Z,97183.72
2023-08-11T06:07:21.749Z,97184.44
2023-08-11T06:08:23.380Z,97183.88
2023-08-11T06:09:25.100Z,97185.19
2023-08-11T06:10:27.703Z,97181.75
2023-08-11T06:11:29.268Z,97179.88
2023-08-11T06:12:31.781Z,97183.50
2023-08-11T06:13:33.521Z,97178.81
2023-08-11T06:14:35.157Z,97186.88
2023-08-11T06:15:37.009Z,97189.13
2023-08-11T06:16:38.572Z,97187.78
2023-08-11T06:17:40.322Z,97188.13
2023-08-11T06:18:41.998Z,97190.81
2023-08-11T06:19:43.680Z,97187.97
2023-08-11T06:20:45.579Z,97187.81
2023-08-11T06:21:47.330Z,97190.00
2023-08-11T06:22:49.540Z,97185.56
2023-08-11T06:23:51.123Z,97184.25
2023-08-11T06:24:52.713Z,97196.63
2023-08-11T06:25:54.357Z,97195.03
2023-08-11T06:26:56.303Z,97188.69
2023-08-11T06:27:57.910Z,97198.81
2023-08-11T06:28:59.536Z,97187.84
2023-08-11T06:30:01.313Z,97200.25
2023-08-11T06:31:03.378Z,97197.31
2023-08-11T06:32:05.111Z,97197.06
2023-08-11T06:33:06.750Z,97193.31
2023-08-11T06:34:08.372Z,97191.69
2023-08-11T06:35:10.209Z,97202.34
2023-08-11T06:36:11.895Z,97194.13
2023-08-11T06:37:13.537Z,97198.63
2023-08-11T06:38:15.158Z,97197.63
2023-08-11T06:39:17.959Z,97188.03
2023-08-11T06:40:19.813Z,97190.47
2023-08-11T06:41:21.485Z,97194.31
2023-08-11T06:42:25.507Z,97191.69
2023-08-11T06:43:27.442Z,97194.75
2023-08-11T06:44:29.069Z,97193.16
2023-08-11T06:45:31.096Z,97197.63
2023-08-11T06:46:32.952Z,97200.09
2023-08-11T06:47:37.445Z,97191.00
2023-08-11T06:48:39.051Z,97192.44
2023-08-11T06:49:40.616Z,97202.09
2023-08-11T06:50:42.488Z,97188.97
2023-08-11T06:51:44.124Z,97191.94
2023-08-11T06:52:45.732Z,97191.94
2023-08-11T06:53:47.304Z,97187.41
2023-08-11T06:54:48.889Z,97187.53
2023-08-11T06:55:50.482Z,97186.94
2023-08-11T06:56:52.183Z,97181.94
2023-08-11T06:57:53.806Z,97186.81
2023-08-11T06:58:55.503Z,97186.78
2023-08-11T06:59:57.449Z,97184.44
2023-08-11T07:00:59.066Z,97184.44
2023-08-11T07:02:00.702Z,97189.81
2023-08-11T07:03:02.630Z,97188.00
2023-08-11T07:04:05.299Z,97193.38
2023-08-11T07:05:07.098Z,97188.56
2023-08-11T07:06:08.721Z,97187.50
2023-08-11T07:07:10.714Z,97187.50
2023-08-11T07:08:12.584Z,97193.38
2023-08-11T07:09:14.213Z,97184.84
2023-08-11T07:10:15.848Z,97180.53
2023-08-11T07:11:17.530Z,97186.94
2023-08-11T07:12:19.170Z,97190.91
2023-08-11T07:13:20.814Z,97187.03
2023-08-11T07:14:22.489Z,97182.81
2023-08-11T07:15:24.131Z,97188.81
2023-08-11T07:16:25.848Z,97180.38
2023-08-11T07:17:35.227Z,97180.03
2023-08-11T07:18:36.873Z,97173.69
2023-08-11T07:19:38.548Z,97177.50
2023-08-11T07:20:43.856Z,97183.13
2023-08-11T07:21:45.761Z,97177.03
2023-08-11T07:22:47.376Z,97186.31
2023-08-11T07:23:49.052Z,97179.78
2023-08-11T07:24:50.656Z,97172.47
2023-08-11T07:25:52.422Z,97172.72
2023-08-11T07:26:54.165Z,97175.69
2023-08-11T07:27:55.959Z,97168.25
2023-08-11T07:28:57.604Z,97175.31
2023-08-11T07:29:59.254Z,97169.75
2023-08-11T07:31:00.926Z,97162.78
2023-08-11T07:32:04.925Z,97164.44
2023-08-11T07:33:06.601Z,97165.06
2023-08-11T07:34:08.276Z,97166.03
2023-08-11T07:35:09.992Z,97161.06
2023-08-11T07:36:11.606Z,97160.16
2023-08-11T07:37:13.181Z,97165.28
2023-08-11T07:38:14.849Z,97165.19
2023-08-11T07:39:23.352Z,97161.84
2023-08-11T07:40:25.652Z,97172.81
2023-08-11T07:41:27.239Z,97171.88
2023-08-11T07:42:28.855Z,97160.31
2023-08-11T07:43:30.548Z,97162.91
2023-08-11T07:44:35.331Z,97166.13
2023-08-11T07:45:39.757Z,97170.13
2023-08-11T07:46:41.792Z,97175.59
2023-08-11T07:47:43.515Z,97176.31
2023-08-11T07:48:45.123Z,97174.19
2023-08-11T07:49:46.752Z,97179.06
2023-08-11T07:50:48.435Z,97170.03
2023-08-11T07:51:50.625Z,97174.13
2023-08-11T07:52:52.217Z,97177.78
2023-08-11T07:53:53.849Z,97176.53
2023-08-11T07:54:55.570Z,97180.84
2023-08-11T07:55:57.290Z,97178.09
2023-08-11T07:56:59.123Z,97182.28
2023-08-11T07:58:00.709Z,97171.31
2023-08-11T07:59:03.338Z,97172.38
2023-08-11T08:00:06.629Z,97176.41
2023-08-11T08:01:09.601Z,97166.66
2023-08-11T08:02:14.071Z,97171.75
2023-08-11T08:03:18.283Z,97169.25
2023-08-11T08:04:20.512Z,97168.94
2023-08-11T08:05:22.688Z,97172.75
2023-08-11T08:06:24.283Z,97171.00
2023-08-11T08:07:25.868Z,97181.88
2023-08-11T08:08:27.572Z,97175.72
2023-08-11T08:09:30.100Z,97167.41
2023-08-11T08:10:32.227Z,97169.97
2023-08-11T08:11:33.845Z,97170.69
2023-08-11T08:12:39.565Z,97168.97
2023-08-11T08:13:41.204Z,97176.44
2023-08-11T08:14:43.837Z,97167.13
2023-08-11T08:15:45.409Z,97167.00
2023-08-11T08:16:47.100Z,97168.38
2023-08-11T08:17:48.785Z,97162.31
2023-08-11T08:18:50.407Z,97161.25
2023-08-11T08:19:52.097Z,97170.06
2023-08-11T08:20:53.756Z,97157.88
2023-08-11T08:21:55.377Z,97171.59
2023-08-11T08:22:57.012Z,97163.94
2023-08-11T08:23:58.892Z,97160.06
2023-08-11T08:25:00.603Z,97157.06
2023-08-11T08:26:02.193Z,97169.34
2023-08-11T08:27:03.835Z,97169.13
2023-08-11T08:28:07.144Z,97162.63
2023-08-11T08:29:09.083Z,97164.34
2023-08-11T08:30:12.829Z,97160.53
2023-08-11T08:31:15.101Z,97158.13
2023-08-11T08:32:16.649Z,97161.53
2023-08-11T08:33:18.391Z,97158.72
2023-08-11T08:34:20.169Z,97154.31
2023-08-11T08:35:21.774Z,97160.44
2023-08-11T08:36:23.359Z,97152.69
2023-08-11T08:37:26.009Z,97154.09
2023-08-11T08:38:27.599Z,97152.75
2023-08-11T08:39:29.248Z,97156.88
2023-08-11T08:40:31.424Z,97161.00
2023-08-11T08:41:33.664Z,97155.59
2023-08-11T08:42:35.824Z,97155.84
2023-08-11T08:43:37.515Z,97149.00
2023-08-11T08:44:39.439Z,97153.75
2023-08-11T08:45:44.568Z,97149.84
2023-08-11T08:46:48.993Z,97151.16
2023-08-11T08:47:52.287Z,97146.97
2023-08-11T08:49:23.622Z,97133.28
2023-08-11T08:50:26.259Z,97137.56
2023-08-11T08:51:28.615Z,97136.03
2023-08-11T08:52:34.006Z,97139.13
2023-08-11T08:53:35.830Z,97139.03
2023-08-11T08:54:37.520Z,97130.00
2023-08-11T08:55:39.238Z,97136.91
2023-08-11T08:56:41.112Z,97136.19
2023-08-11T08:57:42.732Z,97139.28
2023-08-11T08:58:44.474Z,97135.22
2023-08-11T08:59:46.048Z,97137.72
2023-08-11T09:00:47.837Z,97128.91
2023-08-11T09:01:51.540Z,97128.72
2023-08-11T09:02:55.330Z,97124.59
2023-08-11T09:03:58.003Z,97131.53
2023-08-11T09:04:59.879Z,97127.09
2023-08-11T09:06:01.728Z,97126.44
2023-08-11T09:07:03.746Z,97123.28
2023-08-11T09:08:05.526Z,97124.44
2023-08-11T09:09:09.654Z,97122.97
2023-08-11T09:10:11.377Z,97123.31
2023-08-11T09:11:13.594Z,97119.88
2023-08-11T09:12:15.512Z,97121.59
2023-08-11T09:13:17.464Z,97123.75
2023-08-11T09:14:21.968Z,97126.06
2023-08-11T09:15:23.681Z,97113.28
2023-08-11T09:16:25.807Z,97113.00
2023-08-11T09:17:27.914Z,97116.69
2023-08-11T09:18:30.196Z,97122.63
2023-08-11T09:19:31.850Z,97113.16
2023-08-11T09:20:35.859Z,97114.47
2023-08-11T09:21:37.594Z,97116.97
2023-08-11T09:22:41.052Z,97116.88
2023-08-11T09:23:44.206Z,97116.53
2023-08-11T09:24:47.077Z,97117.06
2023-08-11T09:25:48.653Z,97119.56
2023-08-11T09:26:50.603Z,97116.78
2023-08-11T09:27:52.501Z,97117.06
2023-08-11T09:28:54.811Z,97114.53
2023-08-11T09:29:56.601Z,97113.53
2023-08-11T09:30:58.269Z,97116.97
2023-08-11T09:32:03.500Z,97111.53
2023-08-11T09:33:09.239Z,97112.38
2023-08-11T09:34:14.188Z,97107.56
2023-08-11T09:35:15.828Z,97100.44
2023-08-11T09:36:19.142Z,97098.53
2023-08-11T09:37:20.770Z,97102.00
2023-08-11T09:38:22.396Z,97104.13
2023-08-11T09:39:24.086Z,97100.28
2023-08-11T09:40:26.861Z,97105.38
2023-08-11T09:41:28.459Z,97108.84
2023-08-11T09:42:30.223Z,97103.34
2023-08-11T09:43:32.674Z,97098.69
2023-08-11T09:44:34.713Z,97097.59
2023-08-11T09:45:36.304Z,97101.13
2023-08-11T09:46:39.635Z,97095.63
2023-08-11T09:47:41.922Z,97098.22
2023-08-11T09:48:43.567Z,97099.25
2023-08-11T09:49:45.141Z,97096.97
2023-08-11T09:50:46.999Z,97095.00
2023-08-11T09:51:51.151Z,97091.75
2023-08-11T09:52:53.671Z,97088.38
2023-08-11T09:53:56.084Z,97090.59
2023-08-11T09:55:04.932Z,97092.63
2023-08-11T09:56:07.270Z,97087.78
2023-08-11T09:57:09.868Z,97091.41
2023-08-11T09:58:14.422Z,97088.66
2023-08-11T09:59:19.669Z,97091.41
2023-08-11T10:00:21.334Z,97076.88
2023-08-11T10:01:23.312Z,97082.81
2023-08-11T10:02:30.208Z,97079.19
2023-08-11T10:03:37.607Z,97080.94
2023-08-11T10:04:45.864Z,97084.47
2023-08-11T10:05:52.021Z,97073.69
2023-08-11T10:06:57.248Z,97074.53
2023-08-11T10:08:01.404Z,97069.75
2023-08-11T10:09:04.493Z,97069.75
2023-08-11T10:10:13.701Z,97066.63
2023-08-11T10:11:16.350Z,97073.69
2023-08-11T10:12:19.466Z,97074.66
2023-08-11T10:13:27.320Z,97069.38
2023-08-11T10:14:30.191Z,97068.19
2023-08-11T10:15:33.076Z,97070.72
2023-08-11T10:16:36.406Z,97066.16
2023-08-11T10:17:38.422Z,97069.22
2023-08-11T10:18:42.807Z,97059.88
2023-08-11T10:19:45.466Z,97064.00
2023-08-11T10:20:49.660Z,97064.41
2023-08-11T10:21:51.547Z,97062.09
2023-08-11T10:22:53.135Z,97060.47
2023-08-11T10:23:55.598Z,97063.09
2023-08-11T10:24:57.225Z,97065.19
2023-08-11T10:25:59.034Z,97060.59
2023-08-11T10:27:00.861Z,97059.16
2023-08-11T10:28:03.967Z,97063.38
2023-08-11T10:29:06.014Z,97066.03
2023-08-11T10:30:10.054Z,97073.94
2023-08-11T10:31:11.723Z,97070.88
2023-08-11T10:32:13.321Z,97064.28
2023-08-11T10:33:14.960Z,97064.28
2023-08-11T10:34:22.251Z,97056.03
2023-08-11T10:35:33.866Z,97062.75
2023-08-11T10:36:35.543Z,97064.97
2023-08-11T10:37:37.297Z,97064.44
2023-08-11T10:38:38.937Z,97069.84
2023-08-11T10:39:41.108Z,97064.00
2023-08-11T10:40:43.031Z,97054.88
2023-08-11T10:41:45.406Z,97050.91
2023-08-11T10:42:47.817Z,97055.97
2023-08-11T10:43:50.287Z,97057.06
2023-08-11T10:44:51.956Z,97049.56
2023-08-11T10:45:55.114Z,97047.81
2023-08-11T10:47:03.489Z,97050.69
2023-08-11T10:48:10.472Z,97050.69
2023-08-11T10:49:15.168Z,97046.28
2023-08-11T10:50:19.335Z,97046.03
2023-08-11T10:51:31.260Z,97041.63
2023-08-11T10:52:35.511Z,97043.94
2023-08-11T10:53:40.670Z,97040.06
2023-08-11T10:54:52.034Z,97053.06
2023-08-11T10:56:01.106Z,97038.94
2023-08-11T10:57:04.189Z,97042.63
2023-08-11T10:58:18.726Z,97038.31
2023-08-11T10:59:24.096Z,97037.22
2023-08-11T11:00:26.552Z,97041.50
2023-08-11T11:01:28.240Z,97036.69
2023-08-11T11:02:30.898Z,97039.56
2023-08-11T11:03:33.867Z,97042.44
2023-08-11T11:04:35.440Z,97039.81
2023-08-11T11:05:37.064Z,97041.19
2023-08-11T11:06:40.648Z,97037.13
2023-08-11T11:07:42.238Z,97041.19
2023-08-11T11:08:43.823Z,97041.28
2023-08-11T11:09:45.534Z,97038.28
2023-08-11T11:10:50.569Z,97034.31
2023-08-11T11:11:53.176Z,97036.09
2023-08-11T11:12:54.842Z,97032.41
2023-08-11T11:13:56.583Z,97035.81
2023-08-11T11:15:01.374Z,97043.28
2023-08-11T11:16:02.994Z,97026.28
2023-08-11T11:17:05.263Z,97036.50
2023-08-11T11:18:07.192Z,97035.56
2023-08-11T11:19:10.215Z,97031.63
2023-08-11T11:20:14.220Z,97033.19
2023-08-11T11:21:16.947Z,97030.09
2023-08-11T11:22:18.553Z,97028.13
2023-08-11T11:23:20.127Z,97037.13
2023-08-11T11:24:21.846Z,97032.31
2023-08-11T11:25:23.556Z,97031.44
2023-08-11T11:26:27.302Z,97029.44
2023-08-11T11:27:28.909Z,97020.59
2023-08-11T11:28:30.480Z,97024.97
2023-08-11T11:29:33.275Z,97014.97
2023-08-11T11:30:35.109Z,97020.78
2023-08-11T11:31:40.825Z,97022.31
2023-08-11T11:32:43.635Z,97014.06
2023-08-11T11:33:46.351Z,97013.53
2023-08-11T11:34:48.372Z,97023.47
2023-08-11T11:35:50.059Z,97022.03
2023-08-11T11:36:51.708Z,97021.84
2023-08-11T11:37:53.393Z,97019.63
2023-08-11T11:38:55.381Z,97020.09
2023-08-11T11:39:57.222Z,97021.25
2023-08-11T11:40:58.814Z,97030.03
2023-08-11T11:42:10.047Z,97023.38
2023-08-11T11:43:11.845Z,97023.81
2023-08-11T11:44:13.677Z,97025.81
2023-08-11T11:45:16.062Z,97018.41
2023-08-11T11:46:20.791Z,97024.00
2023-08-11T11:47:22.790Z,97018.50
2023-08-11T11:48:24.913Z,97025.69
2023-08-11T11:49:30.489Z,97015.44
2023-08-11T11:50:32.618Z,97019.63
2023-08-11T11:51:34.280Z,97018.31
2023-08-11T11:52:37.944Z,97017.78
2023-08-11T11:53:40.093Z,97010.88
2023-08-11T11:54:41.685Z,97018.84
2023-08-11T11:55:45.515Z,97009.91
2023-08-11T11:56:58.396Z,97018.50
2023-08-11T11:58:06.324Z,97018.16
2023-08-11T11:59:07.946Z,97012.81
2023-08-11T12:00:17.343Z,97012.34
2023-08-11T12:01:20.173Z,97016.88
2023-08-11T12:02:23.988Z,97021.16
2023-08-11T12:03:25.827Z,97016.97
2023-08-11T12:04:27.820Z,97004.50
2023-08-11T12:05:29.603Z,97013.78
2023-08-11T12:06:31.869Z,97008.16
2023-08-11T12:07:35.632Z,97010.81
2023-08-11T12:08:37.456Z,97010.13
2023-08-11T12:09:55.064Z,97009.59
2023-08-11T12:10:56.976Z,97011.72
2023-08-11T12:11:58.665Z,97006.88
2023-08-11T12:13:01.403Z,97016.91
2023-08-11T12:14:03.295Z,97007.47
2023-08-11T12:15:07.127Z,97006.09
2023-08-11T12:16:10.473Z,97016.41
2023-08-11T12:17:12.168Z,97016.50